Aviation Digital Data Service (ADDS)

Output produced by METARs form (0251 UTC 27 August 2016)
found at http://aviationweather.gov/adds/metars/
 
KCKB 270231Z 2703/2724 VRB03KT P6SM FEW200 
     FM271400 00000KT P6SM FEW045